createdAt,value
2023-04-20T00:05:33.143Z,102449.00
2023-04-20T00:15:56.074Z,102442.00
2023-04-20T00:26:18.201Z,102444.00
2023-04-20T00:36:46.477Z,102436.00
2023-04-20T00:47:08.346Z,102440.00
2023-04-20T00:57:32.060Z,102430.00
2023-04-20T01:07:55.829Z,102437.00
2023-04-20T01:18:18.992Z,102432.00
2023-04-20T01:28:41.781Z,102433.00
2023-04-20T01:39:03.276Z,102423.00
2023-04-20T01:49:26.633Z,102414.00
2023-04-20T01:59:48.058Z,102432.00
2023-04-20T02:10:12.133Z,102436.00
2023-04-20T02:20:33.975Z,102440.00
2023-04-20T02:30:56.814Z,102435.00
2023-04-20T02:41:18.407Z,102434.00
2023-04-20T02:51:41.773Z,102438.00
2023-04-20T03:02:03.728Z,102428.00
2023-04-20T03:12:27.215Z,102416.00
2023-04-20T03:23:20.291Z,102435.00
2023-04-20T03:33:42.934Z,102441.00
2023-04-20T03:44:06.938Z,102449.00
2023-04-20T03:54:29.728Z,102434.00
2023-04-20T04:04:51.706Z,102450.00
2023-04-20T04:15:20.235Z,102453.00
2023-04-20T04:25:48.532Z,102454.00
2023-04-20T04:36:15.153Z,102463.00
2023-04-20T04:46:37.056Z,102469.00
2023-04-20T04:57:00.062Z,102459.00
2023-04-20T05:07:22.101Z,102471.00
2023-04-20T05:17:44.962Z,102478.00
2023-04-20T05:28:06.849Z,102469.00
2023-04-20T05:38:29.611Z,102488.00
2023-04-20T05:48:51.340Z,102485.00
2023-04-20T05:59:14.367Z,102488.00
2023-04-20T06:09:35.795Z,102495.00
2023-04-20T06:19:58.959Z,102506.00
2023-04-20T06:30:21.516Z,102503.00
2023-04-20T06:40:44.406Z,102508.00
2023-04-20T06:51:05.920Z,102485.00
2023-04-20T07:01:28.757Z,102501.00
2023-04-20T07:11:50.661Z,102502.00
2023-04-20T07:22:13.435Z,102515.00
2023-04-20T07:32:35.244Z,102516.00
2023-04-20T07:42:58.382Z,102517.00
2023-04-20T07:53:19.674Z,102504.00
2023-04-20T08:03:42.591Z,102502.00
2023-04-20T08:14:05.741Z,102498.00
2023-04-20T08:24:28.395Z,102510.00
2023-04-20T08:34:51.220Z,102517.00
2023-04-20T08:45:14.219Z,102538.00
2023-04-20T08:55:35.571Z,102543.00
2023-04-20T09:05:58.247Z,102536.00
2023-04-20T09:16:19.997Z,102536.00
2023-04-20T09:26:43.142Z,102534.00
2023-04-20T09:37:06.845Z,102520.00
2023-04-20T09:47:30.919Z,102500.00
2023-04-20T09:57:53.471Z,102482.00
2023-04-20T10:08:16.193Z,102465.00
2023-04-20T10:18:39.839Z,102479.00
2023-04-20T10:29:02.919Z,102482.00
2023-04-20T10:39:26.052Z,102448.00
2023-04-20T10:49:49.183Z,102432.00
2023-04-20T11:00:18.810Z,102413.00
2023-04-20T11:10:43.031Z,102436.00
2023-04-20T11:21:05.657Z,102449.00
2023-04-20T11:31:29.145Z,102426.00
2023-04-20T11:41:51.193Z,102413.00
2023-04-20T11:52:13.978Z,102389.00
2023-04-20T12:02:35.713Z,102378.00
2023-04-20T12:12:59.946Z,102367.00
2023-04-20T12:23:21.386Z,102364.00
2023-04-20T12:33:44.548Z,102367.00
2023-04-20T12:44:07.674Z,102318.00
2023-04-20T12:54:32.330Z,102303.00
2023-04-20T13:04:54.112Z,102294.00
2023-04-20T13:15:31.804Z,102246.00
2023-04-20T13:26:01.606Z,102241.00
2023-04-20T13:36:29.699Z,102260.00
2023-04-20T13:46:51.197Z,102212.00
2023-04-20T13:57:14.022Z,102206.00
2023-04-20T14:07:35.855Z,102238.00
2023-04-20T14:18:00.207Z,102231.00
2023-04-20T14:28:22.112Z,102205.00
2023-04-20T14:38:44.804Z,102207.00
2023-04-20T14:49:08.547Z,102189.00
2023-04-20T14:59:33.690Z,102157.00
2023-04-20T15:09:55.486Z,102190.00
2023-04-20T15:20:18.320Z,102194.00
2023-04-20T15:30:40.262Z,102177.00
2023-04-20T15:41:02.944Z,102190.00
2023-04-20T15:51:24.845Z,102172.00
2023-04-20T16:01:48.909Z,102165.00
2023-04-20T16:12:10.826Z,102179.00
2023-04-20T16:22:33.831Z,102181.00
2023-04-20T16:32:55.739Z,102168.00
2023-04-20T16:43:19.127Z,102186.00
2023-04-20T16:53:41.107Z,102181.00
2023-04-20T17:04:05.376Z,102194.00
2023-04-20T17:14:27.442Z,102193.00
2023-04-20T17:24:50.561Z,102222.00
2023-04-20T17:35:12.203Z,102216.00
2023-04-20T17:45:35.449Z,102228.00
2023-04-20T17:55:57.406Z,102234.00
2023-04-20T18:06:20.581Z,102252.00
2023-04-20T18:16:42.223Z,102259.00
2023-04-20T18:27:05.015Z,102271.00
2023-04-20T18:37:26.811Z,102278.00
2023-04-20T18:47:49.999Z,102284.00
2023-04-20T18:58:11.952Z,102281.00
2023-04-20T19:08:35.303Z,102288.00
2023-04-20T19:18:56.933Z,102290.00
2023-04-20T19:29:20.033Z,102283.00
2023-04-20T19:39:45.372Z,102285.00
2023-04-20T19:50:09.533Z,102289.00
2023-04-20T20:00:33.116Z,102287.00
2023-04-20T20:10:56.420Z,102279.00
2023-04-20T20:21:18.086Z,102296.00
2023-04-20T20:31:43.785Z,102308.00
2023-04-20T20:42:07.756Z,102319.00
2023-04-20T20:52:32.016Z,102303.00
2023-04-20T21:02:53.475Z,102305.00
2023-04-20T21:13:18.855Z,102309.00
2023-04-20T21:23:40.509Z,102303.00
2023-04-20T21:34:03.255Z,102310.00
2023-04-20T21:44:24.662Z,102305.00
2023-04-20T21:54:47.396Z,102307.00
2023-04-20T22:05:09.614Z,102305.00
2023-04-20T22:15:32.412Z,102315.00
2023-04-20T22:25:54.241Z,102309.00
2023-04-20T22:36:17.356Z,102310.00
2023-04-20T22:46:38.602Z,102311.00
2023-04-20T22:57:02.031Z,102323.00
2023-04-20T23:07:23.638Z,102329.00
2023-04-20T23:17:46.768Z,102330.00
2023-04-20T23:28:08.610Z,102317.00
2023-04-20T23:38:31.259Z,102316.00
2023-04-20T23:48:52.731Z,102316.00
2023-04-20T23:59:15.436Z,102315.00
